createdAt,value
2017-09-15T00:01:06.054Z,13.20
2017-09-15T00:03:32.064Z,13.20
2017-09-15T00:05:58.111Z,13.20
2017-09-15T00:08:24.119Z,13.20
2017-09-15T00:10:50.130Z,13.20
2017-09-15T00:13:16.166Z,13.30
2017-09-15T00:15:42.187Z,13.20
2017-09-15T00:18:08.210Z,13.20
2017-09-15T00:20:34.227Z,13.30
2017-09-15T00:23:00.263Z,13.30
2017-09-15T00:25:26.275Z,13.30
2017-09-15T00:27:52.338Z,13.30
2017-09-15T00:30:19.159Z,13.30
2017-09-15T00:32:45.194Z,13.30
2017-09-15T00:35:11.222Z,13.30
2017-09-15T00:37:37.479Z,13.40
2017-09-15T00:40:03.511Z,13.30
2017-09-15T00:42:29.546Z,13.40
2017-09-15T00:44:55.590Z,13.40
2017-09-15T00:47:21.602Z,13.40
2017-09-15T00:49:47.623Z,13.30
2017-09-15T00:52:13.682Z,13.30
2017-09-15T00:54:40.459Z,13.30
2017-09-15T00:57:06.510Z,13.30
2017-09-15T00:59:32.594Z,13.30
2017-09-15T01:01:58.625Z,13.30
2017-09-15T01:04:24.959Z,13.30
2017-09-15T01:06:50.972Z,13.30
2017-09-15T01:09:17.004Z,13.20
2017-09-15T01:11:43.058Z,13.30
2017-09-15T01:14:09.074Z,13.30
2017-09-15T01:16:35.091Z,13.30
2017-09-15T01:19:01.126Z,13.20
2017-09-15T01:21:27.162Z,13.20
2017-09-15T01:23:53.214Z,13.20
2017-09-15T01:26:20.178Z,13.20
2017-09-15T01:28:46.188Z,13.20
2017-09-15T01:31:12.203Z,13.20
2017-09-15T01:33:38.248Z,13.20
2017-09-15T01:36:04.260Z,13.10
2017-09-15T01:38:30.291Z,13.20
2017-09-15T01:40:56.326Z,13.10
2017-09-15T01:43:22.390Z,13.10
2017-09-15T01:45:48.416Z,13.10
2017-09-15T01:48:14.450Z,13.00
2017-09-15T01:50:41.266Z,12.90
2017-09-15T01:53:07.277Z,12.90
2017-09-15T01:55:33.302Z,13.00
2017-09-15T01:57:59.491Z,13.00
2017-09-15T02:00:25.498Z,12.80
2017-09-15T02:02:51.518Z,12.90
2017-09-15T02:05:18.311Z,12.70
2017-09-15T02:07:44.338Z,12.70
2017-09-15T02:10:10.354Z,12.70
2017-09-15T02:12:36.436Z,12.70
2017-09-15T02:15:02.498Z,12.70
2017-09-15T02:17:28.558Z,12.70
2017-09-15T02:19:55.537Z,12.70
2017-09-15T02:22:21.553Z,12.70
2017-09-15T02:24:47.575Z,12.70
2017-09-15T02:27:13.719Z,12.60
2017-09-15T02:29:39.744Z,12.70
2017-09-15T02:32:12.703Z,12.60
2017-09-15T02:34:38.758Z,12.60
2017-09-15T02:37:04.775Z,12.60
2017-09-15T02:39:30.793Z,12.50
2017-09-15T02:41:56.863Z,12.50
2017-09-15T02:44:22.948Z,12.50
2017-09-15T02:46:48.974Z,12.60
2017-09-15T02:49:15.023Z,12.60
2017-09-15T02:51:41.794Z,12.50
2017-09-15T02:54:08.548Z,12.40
2017-09-15T02:56:34.838Z,12.40
2017-09-15T02:59:00.883Z,12.30
2017-09-15T03:01:26.889Z,12.30
2017-09-15T03:03:53.682Z,12.40
2017-09-15T03:06:19.685Z,12.40
2017-09-15T03:08:45.727Z,12.40
2017-09-15T03:11:11.750Z,12.40
2017-09-15T03:13:37.776Z,12.40
2017-09-15T03:16:03.786Z,12.30
2017-09-15T03:18:29.878Z,12.30
2017-09-15T03:20:55.890Z,12.40
2017-09-15T03:23:22.666Z,12.30
2017-09-15T03:25:48.679Z,12.30
2017-09-15T03:28:14.690Z,12.20
2017-09-15T03:30:40.919Z,12.30
2017-09-15T03:33:06.929Z,12.20
2017-09-15T03:35:33.704Z,12.20
2017-09-15T03:38:00.015Z,12.10
2017-09-15T03:40:26.038Z,12.10
2017-09-15T03:42:52.062Z,12.00
2017-09-15T03:45:18.110Z,12.10
2017-09-15T03:47:44.124Z,12.10
2017-09-15T03:50:10.149Z,12.10
2017-09-15T03:52:36.202Z,12.10
2017-09-15T03:55:02.223Z,12.10
2017-09-15T03:57:28.234Z,12.00
2017-09-15T03:59:54.298Z,12.00
2017-09-15T04:02:21.422Z,12.00
2017-09-15T04:04:47.446Z,12.00
2017-09-15T04:07:13.510Z,12.00
2017-09-15T04:09:39.539Z,11.90
2017-09-15T04:12:05.562Z,12.00
2017-09-15T04:14:31.622Z,12.00
2017-09-15T04:16:57.639Z,12.00
2017-09-15T04:19:23.666Z,11.90
2017-09-15T04:21:49.683Z,12.00
2017-09-15T04:24:15.707Z,12.00
2017-09-15T04:26:41.715Z,11.80
2017-09-15T04:29:07.798Z,11.90
2017-09-15T04:31:34.589Z,11.90
2017-09-15T04:34:00.602Z,11.90
2017-09-15T04:36:26.656Z,12.00
2017-09-15T04:38:52.671Z,12.00
2017-09-15T04:41:19.436Z,12.00
2017-09-15T04:43:46.312Z,11.80
2017-09-15T04:46:12.326Z,11.90
2017-09-15T04:48:38.345Z,11.90
2017-09-15T04:51:04.375Z,11.80
2017-09-15T04:53:30.406Z,11.90
2017-09-15T04:55:56.419Z,11.80
2017-09-15T04:58:22.445Z,11.80
2017-09-15T05:00:48.468Z,11.70
2017-09-15T05:03:14.524Z,11.70
2017-09-15T05:05:40.822Z,11.80
2017-09-15T05:08:06.877Z,11.90
2017-09-15T05:10:32.890Z,11.90
2017-09-15T05:12:58.914Z,11.90
2017-09-15T05:15:24.931Z,11.90
2017-09-15T05:17:50.959Z,11.80
2017-09-15T05:20:17.154Z,11.80
2017-09-15T05:22:43.176Z,11.70
2017-09-15T05:25:09.211Z,11.90
2017-09-15T05:27:35.415Z,11.80
2017-09-15T05:30:01.450Z,11.80
2017-09-15T05:32:27.461Z,11.90
2017-09-15T05:34:53.497Z,11.80
2017-09-15T05:37:19.518Z,11.90
2017-09-15T05:39:45.538Z,11.80
2017-09-15T05:42:11.599Z,11.80
2017-09-15T05:44:37.611Z,11.80
2017-09-15T05:47:03.635Z,11.90
2017-09-15T05:49:29.942Z,11.90
2017-09-15T05:51:55.958Z,11.90
2017-09-15T05:54:21.982Z,11.90
2017-09-15T05:56:48.299Z,11.80
2017-09-15T05:59:14.331Z,11.90
2017-09-15T06:01:40.374Z,12.00
2017-09-15T06:04:06.414Z,12.00
2017-09-15T06:06:32.430Z,12.00
2017-09-15T06:08:58.447Z,12.00
2017-09-15T06:11:24.494Z,12.10
2017-09-15T06:13:50.515Z,12.10
2017-09-15T06:16:16.550Z,12.10
2017-09-15T06:18:43.330Z,12.00
2017-09-15T06:21:09.341Z,12.00
2017-09-15T06:23:35.410Z,12.10
2017-09-15T06:26:01.591Z,12.10
2017-09-15T06:28:27.614Z,12.20
2017-09-15T06:30:53.623Z,12.20
2017-09-15T06:33:19.678Z,12.10
2017-09-15T06:35:45.684Z,12.20
2017-09-15T06:38:11.686Z,12.10
2017-09-15T06:40:38.483Z,12.20
2017-09-15T06:43:04.498Z,12.10
2017-09-15T06:45:30.527Z,12.30
2017-09-15T06:47:56.590Z,12.30
2017-09-15T06:50:23.337Z,12.30
2017-09-15T06:52:49.356Z,12.30
2017-09-15T06:55:16.310Z,12.50
2017-09-15T06:57:42.365Z,12.50
2017-09-15T07:00:08.415Z,12.40
2017-09-15T07:02:34.642Z,12.50
2017-09-15T07:05:00.681Z,12.50
2017-09-15T07:07:27.426Z,12.30
2017-09-15T07:09:54.492Z,12.30
2017-09-15T07:12:20.504Z,12.30
2017-09-15T07:14:47.261Z,12.40
2017-09-15T07:17:13.304Z,12.30
2017-09-15T07:19:39.338Z,12.30
2017-09-15T07:22:05.366Z,12.40
2017-09-15T07:24:31.414Z,12.40
2017-09-15T07:26:57.434Z,12.40
2017-09-15T07:29:23.458Z,12.50
2017-09-15T07:31:50.540Z,12.70
2017-09-15T07:34:16.556Z,12.60
2017-09-15T07:36:42.562Z,12.70
2017-09-15T07:39:09.530Z,12.90
2017-09-15T07:41:35.561Z,12.80
2017-09-15T07:44:01.598Z,12.90
2017-09-15T07:46:27.614Z,12.90
2017-09-15T07:48:53.615Z,13.00
2017-09-15T07:51:19.834Z,12.90
2017-09-15T07:53:45.867Z,13.00
2017-09-15T07:56:11.899Z,13.10
2017-09-15T07:58:38.122Z,13.20
2017-09-15T08:01:04.158Z,13.30
2017-09-15T08:03:30.165Z,13.40
2017-09-15T08:05:56.494Z,13.30
2017-09-15T08:08:22.516Z,13.30
2017-09-15T08:10:48.558Z,13.30
2017-09-15T08:13:14.612Z,13.60
2017-09-15T08:15:42.131Z,13.80
2017-09-15T08:18:08.154Z,13.80
2017-09-15T08:20:34.222Z,13.80
2017-09-15T08:23:00.978Z,13.90
2017-09-15T08:25:27.728Z,13.90
2017-09-15T08:27:53.765Z,13.90
2017-09-15T08:30:19.787Z,14.00
2017-09-15T08:32:45.838Z,14.20
2017-09-15T08:35:11.902Z,14.40
2017-09-15T08:37:38.679Z,14.20
2017-09-15T08:40:04.699Z,14.20
2017-09-15T08:42:30.991Z,14.30
2017-09-15T08:44:57.763Z,14.40
2017-09-15T08:47:23.810Z,14.30
2017-09-15T08:49:49.883Z,14.40
2017-09-15T08:52:16.663Z,14.50
2017-09-15T08:54:42.686Z,14.50
2017-09-15T08:57:08.747Z,14.70
2017-09-15T08:59:34.754Z,14.70
2017-09-15T09:02:00.770Z,14.80
2017-09-15T09:04:26.803Z,14.90
2017-09-15T09:06:52.841Z,14.80
2017-09-15T09:09:18.854Z,15.00
2017-09-15T09:11:44.875Z,15.30
2017-09-15T09:14:10.930Z,15.70
2017-09-15T09:16:37.699Z,15.80
2017-09-15T09:19:03.721Z,15.80
2017-09-15T09:21:29.770Z,15.80
2017-09-15T09:23:56.482Z,16.20
2017-09-15T09:26:22.506Z,16.60
2017-09-15T09:28:48.551Z,16.60
2017-09-15T09:31:14.578Z,16.60
2017-09-15T09:33:40.607Z,17.50
2017-09-15T09:36:06.673Z,18.90
2017-09-15T09:38:33.426Z,21.30
2017-09-15T09:40:59.449Z,21.20
2017-09-15T09:43:25.675Z,22.00
2017-09-15T09:45:51.702Z,22.00
2017-09-15T09:48:17.709Z,21.10
2017-09-15T09:50:43.820Z,21.40
2017-09-15T09:53:10.573Z,21.30
2017-09-15T09:55:36.594Z,21.30
2017-09-15T09:58:02.630Z,21.20
2017-09-15T10:00:28.642Z,22.00
2017-09-15T10:02:54.658Z,22.10
2017-09-15T10:05:21.434Z,21.00
2017-09-15T10:07:47.450Z,21.00
2017-09-15T10:10:13.464Z,21.50
2017-09-15T10:12:39.510Z,22.40
2017-09-15T10:15:05.560Z,21.70
2017-09-15T10:17:31.579Z,21.90
2017-09-15T10:19:57.627Z,21.20
2017-09-15T10:22:24.386Z,20.40
2017-09-15T10:24:50.402Z,20.30
2017-09-15T10:27:16.442Z,19.60
2017-09-15T10:29:42.454Z,19.20
2017-09-15T10:32:08.473Z,19.00
2017-09-15T10:34:34.774Z,18.60
2017-09-15T10:37:01.526Z,18.90
2017-09-15T10:39:28.279Z,18.50
2017-09-15T10:41:54.292Z,18.50
2017-09-15T10:44:20.347Z,18.20
2017-09-15T10:46:46.358Z,17.50
2017-09-15T10:49:12.668Z,16.90
2017-09-15T10:51:38.692Z,17.20
2017-09-15T10:54:04.713Z,17.30
2017-09-15T10:56:31.055Z,17.20
2017-09-15T10:59:03.441Z,16.80
2017-09-15T11:01:29.477Z,16.80
2017-09-15T11:03:56.983Z,17.00
2017-09-15T11:06:22.992Z,17.10
2017-09-15T11:08:49.745Z,17.30
2017-09-15T11:11:16.082Z,17.30
2017-09-15T11:13:42.114Z,17.30
2017-09-15T11:16:08.131Z,17.40
2017-09-15T11:18:34.385Z,17.40
2017-09-15T11:21:00.417Z,17.40
2017-09-15T11:23:26.445Z,17.50
2017-09-15T11:25:52.507Z,17.60
2017-09-15T11:28:19.274Z,17.50
2017-09-15T11:30:45.291Z,17.50
2017-09-15T11:33:11.531Z,17.60
2017-09-15T11:35:37.591Z,17.40
2017-09-15T11:38:04.367Z,17.40
2017-09-15T11:40:30.711Z,17.40
2017-09-15T11:42:56.729Z,17.10
2017-09-15T11:45:22.752Z,17.20
2017-09-15T11:47:48.966Z,17.10
2017-09-15T11:50:15.010Z,17.10
2017-09-15T11:52:41.059Z,17.10
2017-09-15T11:55:07.155Z,17.20
2017-09-15T11:57:33.168Z,17.20
2017-09-15T11:59:59.190Z,17.30
2017-09-15T12:02:25.524Z,17.50
2017-09-15T12:04:51.537Z,17.50
2017-09-15T12:07:17.592Z,17.40
2017-09-15T12:09:43.623Z,17.30
2017-09-15T12:12:09.650Z,17.20
2017-09-15T12:14:35.838Z,17.10
2017-09-15T12:17:01.882Z,17.10
2017-09-15T12:19:27.886Z,17.20
2017-09-15T12:22:00.982Z,17.40
2017-09-15T12:24:27.014Z,17.50
2017-09-15T12:26:53.024Z,17.70
2017-09-15T12:29:19.045Z,17.50
2017-09-15T12:31:52.146Z,17.70
2017-09-15T12:34:18.454Z,17.80
2017-09-15T12:36:44.487Z,17.80
2017-09-15T12:39:10.518Z,17.60
2017-09-15T12:41:36.564Z,17.60
2017-09-15T12:44:02.665Z,17.40
2017-09-15T12:46:28.689Z,17.20
2017-09-15T12:48:55.097Z,17.20
2017-09-15T12:51:21.130Z,17.40
2017-09-15T12:53:47.147Z,17.50
2017-09-15T12:56:13.248Z,17.50
2017-09-15T12:58:40.012Z,17.40
2017-09-15T13:01:06.038Z,17.40
2017-09-15T13:03:32.097Z,17.50
2017-09-15T13:05:58.131Z,17.50
2017-09-15T13:08:24.141Z,17.50
2017-09-15T13:10:50.170Z,17.30
2017-09-15T13:13:16.186Z,17.20
2017-09-15T13:15:42.206Z,17.20
2017-09-15T13:18:08.254Z,17.40
2017-09-15T13:20:35.038Z,17.70
2017-09-15T13:23:01.070Z,17.70
2017-09-15T13:25:27.119Z,17.50
2017-09-15T13:27:53.204Z,17.40
2017-09-15T13:30:19.235Z,17.30
2017-09-15T13:32:45.257Z,17.10
2017-09-15T13:35:11.293Z,17.00
2017-09-15T13:37:37.792Z,17.10
2017-09-15T13:40:03.843Z,17.10
2017-09-15T13:42:29.850Z,17.00
2017-09-15T13:44:55.886Z,17.00
2017-09-15T13:47:21.930Z,16.80
2017-09-15T13:49:47.959Z,16.70
2017-09-15T13:52:14.257Z,16.80
2017-09-15T13:54:40.282Z,16.80
2017-09-15T13:57:06.315Z,16.80
2017-09-15T13:59:33.086Z,16.70
2017-09-15T14:01:59.853Z,16.70
2017-09-15T14:04:25.877Z,16.70
2017-09-15T14:06:51.927Z,16.60
2017-09-15T14:09:17.958Z,16.80
2017-09-15T14:11:44.001Z,17.00
2017-09-15T14:14:15.707Z,17.10
2017-09-15T14:16:41.730Z,17.10
2017-09-15T14:19:07.763Z,17.10
2017-09-15T14:21:33.831Z,17.20
2017-09-15T14:24:00.624Z,17.20
2017-09-15T14:26:26.663Z,17.20
2017-09-15T14:28:52.714Z,17.10
2017-09-15T14:31:19.480Z,17.20
2017-09-15T14:33:45.503Z,17.20
2017-09-15T14:36:11.546Z,17.20
2017-09-15T14:38:37.582Z,17.20
2017-09-15T14:41:03.639Z,17.10
2017-09-15T14:43:30.428Z,17.10
2017-09-15T14:45:56.454Z,17.10
2017-09-15T14:48:22.476Z,17.00
2017-09-15T14:50:48.883Z,17.00
2017-09-15T14:53:14.911Z,17.00
2017-09-15T14:55:40.957Z,16.80
2017-09-15T14:58:06.986Z,16.80
2017-09-15T15:00:33.051Z,16.90
2017-09-15T15:02:59.826Z,17.20
2017-09-15T15:05:26.130Z,17.20
2017-09-15T15:07:52.202Z,17.10
2017-09-15T15:10:18.230Z,17.10
2017-09-15T15:12:44.254Z,17.00
2017-09-15T15:15:10.290Z,16.80
2017-09-15T15:17:37.242Z,16.80
2017-09-15T15:20:03.994Z,16.70
2017-09-15T15:22:30.775Z,16.70
2017-09-15T15:24:56.831Z,16.70
2017-09-15T15:27:22.880Z,16.70
2017-09-15T15:29:49.667Z,16.70
2017-09-15T15:32:15.730Z,16.70
2017-09-15T15:34:42.496Z,16.60
2017-09-15T15:37:08.517Z,16.60
2017-09-15T15:39:34.787Z,16.70
2017-09-15T15:42:00.808Z,16.70
2017-09-15T15:44:26.830Z,16.80
2017-09-15T15:46:52.912Z,16.80
2017-09-15T15:49:20.482Z,16.70
2017-09-15T15:51:46.523Z,16.70
2017-09-15T15:54:12.592Z,16.70
2017-09-15T15:56:39.358Z,16.60
2017-09-15T15:59:05.415Z,16.60
2017-09-15T16:01:31.573Z,16.70
2017-09-15T16:04:06.841Z,16.70
2017-09-15T16:06:32.866Z,16.70
2017-09-15T16:08:58.886Z,16.60
2017-09-15T16:11:24.914Z,16.50
2017-09-15T16:13:51.248Z,16.50
2017-09-15T16:16:17.284Z,16.40
2017-09-15T16:18:43.330Z,16.50
2017-09-15T16:21:09.386Z,16.40
2017-09-15T16:23:35.418Z,16.40
2017-09-15T16:26:01.468Z,16.50
2017-09-15T16:28:27.768Z,16.50
2017-09-15T16:31:00.866Z,16.40
2017-09-15T16:33:26.893Z,16.40
2017-09-15T16:35:52.930Z,16.40
2017-09-15T16:38:25.198Z,16.40
2017-09-15T16:40:57.326Z,16.40
2017-09-15T16:43:29.798Z,16.30
2017-09-15T16:46:02.355Z,16.00
2017-09-15T16:48:35.657Z,15.90
2017-09-15T16:51:01.762Z,15.90
2017-09-15T16:53:28.563Z,15.90
2017-09-15T16:55:54.593Z,15.90
2017-09-15T16:58:20.611Z,15.80
2017-09-15T17:00:46.666Z,15.70
2017-09-15T17:03:13.484Z,15.70
2017-09-15T17:05:39.518Z,15.60
2017-09-15T17:08:05.581Z,15.60
2017-09-15T17:10:31.611Z,15.70
2017-09-15T17:12:57.638Z,15.70
2017-09-15T17:15:30.588Z,15.60
2017-09-15T17:17:57.379Z,15.60
2017-09-15T17:20:23.466Z,15.60
2017-09-15T17:22:49.697Z,15.80
2017-09-15T17:25:15.710Z,15.80
2017-09-15T17:27:41.903Z,15.80
2017-09-15T17:30:07.994Z,15.60
2017-09-15T17:32:34.075Z,15.60
2017-09-15T17:35:01.402Z,15.50
2017-09-15T17:37:27.451Z,15.40
2017-09-15T17:39:54.205Z,15.40
2017-09-15T17:42:20.343Z,15.40
2017-09-15T17:44:46.530Z,15.40
2017-09-15T17:47:13.314Z,15.30
2017-09-15T17:49:39.366Z,15.20
2017-09-15T17:52:05.390Z,15.30
2017-09-15T17:54:31.667Z,15.30
2017-09-15T17:56:57.688Z,15.30
2017-09-15T17:59:23.770Z,15.30
2017-09-15T18:01:49.891Z,15.20
2017-09-15T18:04:16.681Z,15.10
2017-09-15T18:06:42.736Z,15.00
2017-09-15T18:09:10.279Z,15.00
2017-09-15T18:11:36.358Z,15.00
2017-09-15T18:14:03.125Z,15.00
2017-09-15T18:16:29.542Z,15.00
2017-09-15T18:18:55.574Z,14.90
2017-09-15T18:21:21.602Z,14.80
2017-09-15T18:23:47.627Z,14.70
2017-09-15T18:26:13.764Z,14.80
2017-09-15T18:28:40.201Z,14.80
2017-09-15T18:31:06.506Z,14.70
2017-09-15T18:33:32.534Z,14.70
2017-09-15T18:35:58.662Z,14.80
2017-09-15T18:38:25.014Z,14.90
2017-09-15T18:40:51.119Z,14.90
2017-09-15T18:43:17.358Z,14.80
2017-09-15T18:45:43.496Z,14.80
2017-09-15T18:48:10.312Z,14.90
2017-09-15T18:50:36.420Z,14.80
2017-09-15T18:53:02.829Z,14.70
2017-09-15T18:55:28.894Z,14.60
2017-09-15T18:57:54.912Z,14.70
2017-09-15T19:00:21.070Z,14.40
2017-09-15T19:02:47.185Z,14.40
2017-09-15T19:05:13.257Z,14.40
2017-09-15T19:07:39.330Z,14.40
2017-09-15T19:10:06.739Z,14.40
2017-09-15T19:12:32.830Z,14.40
2017-09-15T19:14:59.662Z,14.40
2017-09-15T19:17:26.484Z,14.30
2017-09-15T19:19:52.584Z,14.30
2017-09-15T19:22:18.759Z,14.40
2017-09-15T19:24:45.790Z,14.30
2017-09-15T19:27:11.879Z,14.30
2017-09-15T19:29:37.995Z,14.30
2017-09-15T19:32:04.037Z,14.20
2017-09-15T19:34:30.088Z,14.30
2017-09-15T19:36:56.206Z,14.30
2017-09-15T19:39:22.266Z,14.30
2017-09-15T19:41:48.286Z,14.30
2017-09-15T19:44:15.154Z,14.30
2017-09-15T19:46:41.245Z,14.30
2017-09-15T19:49:07.267Z,14.30
2017-09-15T19:51:34.363Z,14.30
2017-09-15T19:54:00.420Z,14.30
2017-09-15T19:56:27.224Z,14.30
2017-09-15T19:58:53.304Z,14.30
2017-09-15T20:01:19.347Z,14.30
2017-09-15T20:03:45.376Z,14.20
2017-09-15T20:06:11.514Z,14.30
2017-09-15T20:08:37.583Z,14.10
2017-09-15T20:11:04.405Z,14.10
2017-09-15T20:13:30.520Z,14.10
2017-09-15T20:15:57.965Z,14.10
2017-09-15T20:18:24.052Z,14.10
2017-09-15T20:20:50.108Z,14.10
2017-09-15T20:23:16.174Z,14.10
2017-09-15T20:25:43.239Z,14.20
2017-09-15T20:28:09.279Z,14.20
2017-09-15T20:30:35.317Z,14.20
2017-09-15T20:33:01.414Z,14.10
2017-09-15T20:35:34.418Z,14.10
2017-09-15T20:38:00.438Z,14.20
2017-09-15T20:40:26.502Z,14.00
2017-09-15T20:42:52.665Z,14.00
2017-09-15T20:45:19.566Z,14.00
2017-09-15T20:47:45.633Z,14.00
2017-09-15T20:50:11.677Z,14.00
2017-09-15T20:52:37.731Z,14.00
2017-09-15T20:55:05.681Z,14.10
2017-09-15T20:57:31.711Z,14.10
2017-09-15T20:59:57.738Z,14.10
2017-09-15T21:02:23.902Z,14.10
2017-09-15T21:04:49.938Z,14.10
2017-09-15T21:07:15.978Z,14.00
2017-09-15T21:09:44.168Z,13.90
2017-09-15T21:12:10.214Z,14.00
2017-09-15T21:14:36.250Z,14.00
2017-09-15T21:17:04.002Z,13.90
2017-09-15T21:19:30.624Z,13.90
2017-09-15T21:21:56.686Z,14.00
2017-09-15T21:24:22.927Z,13.90
2017-09-15T21:26:48.954Z,13.80
2017-09-15T21:29:15.002Z,13.80
2017-09-15T21:31:41.308Z,13.80
2017-09-15T21:34:07.378Z,13.80
2017-09-15T21:36:33.403Z,13.80
2017-09-15T21:38:59.869Z,13.70
2017-09-15T21:41:25.938Z,13.80
2017-09-15T21:43:51.969Z,13.80
2017-09-15T21:46:18.244Z,13.70
2017-09-15T21:48:44.257Z,13.70
2017-09-15T21:51:11.383Z,13.70
2017-09-15T21:53:38.358Z,13.70
2017-09-15T21:56:04.403Z,13.70
2017-09-15T21:58:30.426Z,13.70
2017-09-15T22:00:56.478Z,13.70
2017-09-15T22:03:22.534Z,13.70
2017-09-15T22:05:48.569Z,13.60
2017-09-15T22:08:14.595Z,13.70
2017-09-15T22:10:40.643Z,13.70
2017-09-15T22:13:06.682Z,13.60
2017-09-15T22:15:32.707Z,13.50
2017-09-15T22:17:58.766Z,13.50
2017-09-15T22:20:25.543Z,13.60
2017-09-15T22:22:51.550Z,13.60
2017-09-15T22:25:17.590Z,13.60
2017-09-15T22:27:43.598Z,13.60
2017-09-15T22:30:09.678Z,13.60
2017-09-15T22:32:36.454Z,13.50
2017-09-15T22:35:02.526Z,13.50
2017-09-15T22:37:28.582Z,13.60
2017-09-15T22:39:54.619Z,13.50
2017-09-15T22:42:20.630Z,13.40
2017-09-15T22:44:46.986Z,13.30
2017-09-15T22:47:13.035Z,13.30
2017-09-15T22:49:39.051Z,13.40
2017-09-15T22:52:05.119Z,13.30
2017-09-15T22:54:31.886Z,13.50
2017-09-15T22:56:57.958Z,13.50
2017-09-15T22:59:24.030Z,13.40
2017-09-15T23:01:50.073Z,13.40
2017-09-15T23:04:16.097Z,13.30
2017-09-15T23:06:43.151Z,13.30
2017-09-15T23:09:09.178Z,13.40
2017-09-15T23:11:35.233Z,13.30
2017-09-15T23:14:02.039Z,13.20
2017-09-15T23:16:28.055Z,13.30
2017-09-15T23:18:54.078Z,13.20
2017-09-15T23:21:20.111Z,13.30
2017-09-15T23:23:46.142Z,13.20
2017-09-15T23:26:12.163Z,13.20
2017-09-15T23:28:40.086Z,13.10
2017-09-15T23:31:06.135Z,13.00
2017-09-15T23:33:32.172Z,13.00
2017-09-15T23:35:59.678Z,13.00
2017-09-15T23:38:25.696Z,13.00
2017-09-15T23:40:51.731Z,13.00
2017-09-15T23:43:17.791Z,13.00
2017-09-15T23:45:43.853Z,13.00
2017-09-15T23:48:09.870Z,13.10
2017-09-15T23:50:36.650Z,12.90
2017-09-15T23:53:02.675Z,12.90
2017-09-15T23:55:28.726Z,13.00
2017-09-15T23:57:55.001Z,13.00
